• Join FlightAware (Why Join?)
  • Login
  • US Flag 
09:15AM EDT


 

Airport Tracker/Info


-or-


 

Live Flight TrackerFlight Track Log ✈ DAL4165 ✈ 22-Apr-2013 ✈ KATL - KOKC

Flight Track Log - Related Links

Times and Time Zones

All times are in EDT time to prevent confusion due to time zone crossing. See the DAL4165 flight status page for this flight to view local times or setup timezone preferences in your user account.

Time Position Orientation Groundspeed Altitude Reporting Facility
EDT Latitude Longitude Course Direction KTS MPH feet Rate Location/Type
04:43PM 33.6500 -84.3500 252° West 189 217 2,800  Level Atlanta TRACON
04:44PM 33.6833 -84.3000 51° Northeast 258 297 4,400 2,160 Climbing Atlanta TRACON
04:45PM 33.8000 -84.3084 270° West  Level FlightAware Approximate
04:45PM 33.7500 -84.2833 12° North 280 322 7,000  Level Atlanta TRACON
04:46PM 33.8001 -84.4276 270° West  Level FlightAware Approximate
04:46PM 33.8106 -84.3764 308° West 282 325 11,600  Level Atlanta Center
04:47PM 33.8000 -84.5469 270° West  Level FlightAware Approximate
04:47PM 33.7914 -84.4736 257° West 278 320 12,800  Level Atlanta Center
04:48PM 33.7871 -84.6636 252° West  Level FlightAware Approximate
04:48PM 33.7681 -84.5986 257° West 326 375 14,100  Level Atlanta Center
04:49PM 33.7486 -84.7083 258° West 360 414 15,800 1,800 Climbing Atlanta Center
04:50PM 33.7228 -84.8456 257° West 383 441 17,700 1,500 Climbing Atlanta Center
04:51PM 33.6989 -84.9703 257° West 388 447 18,900 1,440 Climbing Atlanta Center
04:52PM 33.6750 -85.0972 257° West 393 452 20,600 1,560 Climbing Atlanta Center
04:53PM 33.6508 -85.2292 258° West 393 452 22,100 1,320 Climbing Atlanta Center
04:54PM 33.6494 -85.3464 269° West 399 459 23,300 1,200 Climbing Atlanta Center
04:55PM 33.6542 -85.4839 272° West 404 465 24,500 1,200 Climbing Atlanta Center
04:56PM 33.6567 -85.6211 271° West 409 471 25,700 1,260 Climbing Atlanta Center
04:57PM 33.6592 -85.7533 271° West 409 471 27,100 1,380 Climbing Atlanta Center
04:58PM 33.6594 -85.8831 270° West 402 463 28,500 1,620 Climbing Atlanta Center
04:59PM 33.6614 -86.0156 271° West 402 463 30,400 1,500 Climbing Atlanta Center
05:00PM 33.6594 -86.1453 269° West 402 463 31,500 960 Climbing Atlanta Center
05:01PM 33.6633 -86.2725 272° West 397 457 32,400 780 Climbing Atlanta Center
05:02PM 33.6653 -86.4000 271° West 392 451 33,100 720 Climbing Atlanta Center
05:03PM 33.6667 -86.5322 271° West 392 451 33,900 360 Climbing Atlanta Center
05:04PM 33.6661 -86.6644 270° West 392 451 33,900  Level Atlanta Center
05:05PM 33.6675 -86.7969 271° West 397 457 33,900  Level Atlanta Center
05:06PM 33.6747 -86.9294 274° West 403 464 33,900  Level Atlanta Center
05:07PM 33.7011 -87.0550 284° West 403 464 33,900  Level Atlanta Center
05:09PM 33.7461 -87.2694 284° West 417 480 33,900  Level Memphis Center
05:11PM 33.8067 -87.5322 286° West 390 449 33,900  Level Memphis Center
05:12PM 33.8325 -87.6589 284° West 390 449 33,900  Level Memphis Center
05:13PM 33.8536 -87.7733 283° West 390 449 33,900  Level Memphis Center
05:14PM 33.8811 -87.8978 285° West 390 449 33,900  Level Memphis Center
05:15PM 33.9044 -88.0247 283° West 390 449 33,900  Level Memphis Center
05:16PM 33.9317 -88.1492 285° West 390 449 33,900  Level Memphis Center
05:17PM 33.9550 -88.2811 282° West 400 460 33,900  Level Memphis Center
05:18PM 33.9800 -88.4033 284° West 393 452 33,900  Level Memphis Center
05:19PM 34.0047 -88.5281 283° West 388 447 33,900  Level Memphis Center
05:20PM 34.0294 -88.6503 284° West 388 447 33,900  Level Memphis Center
05:21PM 34.0542 -88.7753 283° West 388 447 33,900  Level Memphis Center
05:22PM 34.0808 -88.9078 284° West 381 438 33,900  Level Memphis Center
05:23PM 34.1050 -89.0303 283° West 375 432 33,900  Level Memphis Center
05:24PM 34.1272 -89.1503 283° West 375 432 33,900  Level Memphis Center
05:25PM 34.1511 -89.2753 283° West 375 432 33,900  Level Memphis Center
05:26PM 34.1753 -89.3981 283° West 375 432 33,900  Level Memphis Center
05:27PM 34.1947 -89.5058 282° West 375 432 33,900  Level Memphis Center
05:28PM 34.2186 -89.6286 283° West 375 432 33,900  Level Memphis Center
05:29PM 34.2422 -89.7517 283° West 375 432 33,900  Level Memphis Center
05:30PM 34.2656 -89.8719 283° West 375 432 33,900  Level Memphis Center
05:31PM 34.2911 -90.0103 283° West 375 432 33,900  Level Memphis Center
05:32PM 34.3144 -90.1358 283° West 375 432 33,900  Level Memphis Center
05:33PM 34.3375 -90.2592 283° West 375 432 33,900  Level Memphis Center
05:34PM 34.3606 -90.3847 283° West 375 432 33,900  Level Memphis Center
05:35PM 34.3833 -90.5081 283° West 375 432 33,900  Level Memphis Center
05:36PM 34.4061 -90.6289 283° West 375 432 33,900  Level Memphis Center
05:37PM 34.4289 -90.7550 282° West 375 432 33,900  Level Memphis Center
05:38PM 34.4514 -90.8811 282° West 375 432 33,900  Level Memphis Center
05:39PM 34.4717 -90.9894 283° West 370 426 33,900  Level Memphis Center
05:40PM 34.4939 -91.1106 283° West 376 433 33,900  Level Memphis Center
05:41PM 34.5139 -91.2394 281° West 376 433 33,900  Level Memphis Center
05:42PM 34.5381 -91.3606 284° West 376 433 33,900  Level Memphis Center
05:43PM 34.5581 -91.4819 281° West 371 427 34,000  Climbing Memphis Center
05:44PM 34.5817 -91.6058 283° West 376 433 34,000  Level Memphis Center
05:45PM 34.6014 -91.7322 281° West 371 427 34,000  Level Memphis Center
05:46PM 34.6228 -91.8564 282° West 365 420 34,000  Level Memphis Center
05:47PM 34.6422 -91.9803 281° West 375 432 34,000  Level Memphis Center
05:48PM 34.6656 -92.1019 283° West 375 432 34,000  Level Memphis Center
05:49PM 34.6847 -92.2286 280° West 375 432 34,000  Level Memphis Center
05:50PM 34.6997 -92.3275 280° West 375 432 34,000 -360 Level Memphis Center
05:51PM 34.7183 -92.4644 279° West 375 432 33,300 -900 Descending Memphis Center
05:52PM 34.7369 -92.5936 280° West 375 432 32,300 -1,020 Descending Memphis Center
05:53PM 34.7533 -92.7206 279° West 380 437 31,300 -1,020 Descending Memphis Center
05:54PM 34.7719 -92.8500 280° West 380 437 30,300 -1,020 Descending Memphis Center
05:55PM 34.7903 -92.9694 281° West 380 437 29,300 -1,200 Descending Memphis Center
05:56PM 34.8083 -93.1039 279° West 390 449 28,000 -660 Descending Memphis Center
05:57PM 34.8239 -93.2386 278° West 395 455 28,000  Level Memphis Center
05:58PM 34.8419 -93.3606 280° West 387 445 28,000  Level Memphis Center
05:59PM 34.8617 -93.4928 280° West 387 445 28,000  Level Memphis Center
06:00PM 34.8792 -93.6225 279° West 392 451 28,000  Level Memphis Center
06:01PM 34.8964 -93.7575 279° West 392 451 28,000  Level Memphis Center
06:02PM 34.9158 -93.8847 281° West 392 451 28,000  Level Memphis Center
06:03PM 34.9289 -94.0144 277° West 392 451 28,000  Level Memphis Center
06:04PM 34.9478 -94.1472 280° West 392 451 28,000  Level Memphis Center
06:05PM 34.9644 -94.2797 279° West 392 451 28,000  Level Memphis Center
06:06PM 34.9792 -94.4119 278° West 392 451 28,000  Level Memphis Center
06:06PM 34.9928 -94.4989 281° West 394 453 28,000  Level Fort Worth Center
06:07PM 35.0061 -94.6228 278° West 410 472 28,000  Level Fort Worth Center
06:08PM 35.0256 -94.7539 280° West 410 472 28,000  Level Fort Worth Center
06:09PM 35.0431 -94.8853 279° West 405 466 28,000  Level Fort Worth Center
06:10PM 35.0622 -95.0142 280° West 405 466 28,000  Level Fort Worth Center
06:11PM 35.0772 -95.1506 278° West 405 466 28,000  Level Fort Worth Center
06:12PM 35.0942 -95.2847 279° West 405 466 28,000  Level Fort Worth Center
06:13PM 35.1131 -95.4136 280° West 405 466 28,000  Level Fort Worth Center
06:14PM 35.1297 -95.5478 279° West 405 466 28,000  Level Fort Worth Center
06:15PM 35.1461 -95.6844 278° West 405 466 28,000  Level Fort Worth Center
06:16PM 35.1606 -95.8161 278° West 405 466 28,000 -240 Level Fort Worth Center
06:17PM 35.1744 -95.9506 277° West 405 466 27,600 -900 Descending Fort Worth Center
06:18PM 35.1886 -96.0775 278° West 400 460 26,300 -1,500 Descending Fort Worth Center
06:19PM 35.2044 -96.2017 279° West 387 445 24,700 -1,680 Descending Fort Worth Center
06:20PM 35.2181 -96.3283 278° West 382 440 23,000 -1,740 Descending Fort Worth Center
06:21PM 35.2336 -96.4603 278° West 389 448 21,200 -2,040 Descending Fort Worth Center
06:23PM 35.2517 -96.6256 278° West 369 425 18,600 -2,220 Descending Fort Worth Center
06:24PM 35.2669 -96.7447 279° West 361 415 16,500 -2,040 Descending Fort Worth Center
06:25PM 35.2800 -96.8642 278° West 353 406 14,500 -1,860 Descending Fort Worth Center
06:25PM 35.2864 -96.9481 275° West 361 415 13,100 -1,500 Descending Fort Worth Center
06:27PM 35.3014 -97.0828 278° West 296 341 11,500 -1,440 Descending Fort Worth Center
06:27PM 35.3100 -97.1514 279° West 314 361 10,200 -1,680 Descending Fort Worth Center
06:28PM 35.3456 -97.2328 298° West 285 328 8,600 -1,740 Descending Fort Worth Center
06:29PM 35.3936 -97.3067 309° West 272 313 6,800 -1,800 Descending Fort Worth Center
06:30PM 35.4522 -97.3856 312° West 278 320 5,000 -1,200 Descending Fort Worth Center
06:31PM 35.4917 -97.4619 302° West 279 321 4,400 -780 Descending Fort Worth Center
06:32PM 35.4897 -97.4825 263° West 245 282 4,100 -1,200 Descending Fort Worth Center